Time;durP1;ratioP1;P1;durP2;ratioP2;P2;SDS_P1;SDS_P2;PMS_P1;PMS_P2;Temp;Humidity;BMP_temperature;BMP_pressure;BME280_temperature;BME280_humidity;BME280_pressure;Samples;Min_cycle;Max_cycle;Signal;HPM_P1;HPM_P2
2023/07/03 00:00:26;;;;;;;15.75;8.30;;;;;;;20.15;45.25;99680.06;10408293;28;20129;-63
2023/07/03 00:05:28;;;;;;;14.15;8.35;;;;;;;20.13;45.68;99687.50;10411779;28;20099;-61
2023/07/03 00:10:29;;;;;;;13.30;8.70;;;;;;;20.07;45.70;99694.56;10410468;28;20053;-61
2023/07/03 00:15:31;;;;;;;14.18;8.18;;;;;;;20.03;45.59;99679.78;10416741;28;20045;-61
2023/07/03 00:20:32;;;;;;;13.75;8.80;;;;;;;19.91;46.09;99689.47;10415414;28;20048;-64
2023/07/03 00:25:34;;;;;;;10.23;8.70;;;;;;;19.82;46.12;99683.41;10409304;28;20049;-62
2023/07/03 00:30:36;;;;;;;13.00;8.63;;;;;;;19.84;46.35;99691.31;10403179;28;20060;-60
2023/07/03 00:35:38;;;;;;;12.05;8.32;;;;;;;19.79;46.44;99700.00;10408040;28;20518;-61
2023/07/03 00:40:40;;;;;;;11.95;7.65;;;;;;;19.75;46.39;99699.50;10405124;28;20131;-61
2023/07/03 00:45:42;;;;;;;17.88;9.65;;;;;;;19.65;46.81;99704.44;10411353;28;20064;-59
2023/07/03 00:50:43;;;;;;;13.77;8.80;;;;;;;19.58;46.70;99696.28;10404610;28;20072;-61
2023/07/03 00:55:44;;;;;;;13.88;8.82;;;;;;;19.58;47.21;99693.59;10409372;28;20105;-63
2023/07/03 01:00:53;;;;;;;14.25;8.52;;;;;;;19.57;47.13;99701.88;10406809;28;20056;-63
2023/07/03 01:05:55;;;;;;;11.48;8.70;;;;;;;19.56;47.13;99702.91;10406573;28;20049;-62
2023/07/03 01:10:57;;;;;;;12.38;8.32;;;;;;;19.49;47.55;99699.34;10403418;28;20063;-62
2023/07/03 01:16:03;;;;;;;17.08;8.75;;;;;;;19.45;47.25;99704.28;10408536;28;20475;-60
2023/07/03 01:21:16;;;;;;;16.65;9.50;;;;;;;19.47;47.70;99701.38;10401426;28;20901;-61
2023/07/03 01:26:19;;;;;;;15.88;8.88;;;;;;;19.41;47.90;99697.59;10403632;28;20529;-61
2023/07/03 01:31:24;;;;;;;14.27;8.13;;;;;;;19.44;47.81;99705.28;10404624;28;20036;-59
2023/07/03 01:36:29;;;;;;;12.82;9.23;;;;;;;19.43;48.51;99703.63;10413929;28;20632;-61
2023/07/03 01:41:31;;;;;;;13.02;8.90;;;;;;;19.41;48.47;99701.13;10405659;28;20060;-61
2023/07/03 01:46:32;;;;;;;15.95;9.02;;;;;;;19.36;48.24;99700.03;10421550;28;20419;-60
2023/07/03 01:51:47;;;;;;;12.60;8.70;;;;;;;19.30;48.50;99701.66;10406042;28;20045;-62
2023/07/03 01:56:50;;;;;;;13.20;9.20;;;;;;;19.13;48.51;99673.28;10400850;28;20056;-62
2023/07/03 02:02:02;;;;;;;17.00;8.97;;;;;;;19.14;48.75;99696.50;10404905;28;20400;-62
2023/07/03 02:07:06;;;;;;;13.95;8.90;;;;;;;19.16;48.87;99700.69;10406110;28;20094;-61
2023/07/03 02:12:09;;;;;;;12.10;8.73;;;;;;;19.19;48.80;99704.88;10401884;28;20084;-63
2023/07/03 02:17:12;;;;;;;;;;;;;;;19.14;49.15;99704.59;10402624;28;20060;-59
2023/07/03 02:22:13;;;;;;;10.25;8.27;;;;;;;19.11;49.32;99705.00;10397258;28;19921;-64
2023/07/03 02:27:14;;;;;;;12.93;9.23;;;;;;;19.01;49.49;99695.38;10405395;28;20051;-62
2023/07/03 02:32:16;;;;;;;15.13;9.90;;;;;;;19.06;49.14;99706.41;10404966;28;20469;-60
2023/07/03 02:37:19;;;;;;;16.08;8.88;;;;;;;19.02;49.20;99702.44;10409753;28;20504;-62
2023/07/03 02:42:20;;;;;;;12.65;8.23;;;;;;;18.94;49.54;99697.16;10404907;28;20061;-62
2023/07/03 02:47:21;;;;;;;12.73;8.70;;;;;;;18.90;49.42;99693.19;10413702;28;20056;-62
2023/07/03 02:52:23;;;;;;;10.75;8.50;;;;;;;18.90;49.60;99695.88;10410806;28;20487;-63
2023/07/03 02:57:25;;;;;;;15.00;8.98;;;;;;;18.86;50.25;99689.19;10410817;28;20099;-62
2023/07/03 03:02:27;;;;;;;14.95;8.63;;;;;;;19.03;49.69;99706.78;10408142;28;20072;-63
2023/07/03 03:07:28;;;;;;;16.20;9.30;;;;;;;18.79;49.55;99664.81;10404012;28;20053;-61
2023/07/03 03:12:30;;;;;;;12.10;8.52;;;;;;;18.94;50.24;99697.16;10410380;28;20554;-61
2023/07/03 03:17:31;;;;;;;13.60;8.80;;;;;;;19.06;49.90;99709.09;10411535;28;20053;-62
2023/07/03 03:22:33;;;;;;;13.68;8.57;;;;;;;19.08;49.79;99720.53;10408464;28;20072;-61
2023/07/03 03:27:36;;;;;;;14.68;8.85;;;;;;;19.07;49.88;99728.84;10408361;28;20049;-62
2023/07/03 03:32:38;;;;;;;16.52;8.85;;;;;;;19.08;49.82;99730.50;10403945;28;20053;-62
2023/07/03 03:37:40;;;;;;;12.18;8.23;;;;;;;18.94;49.80;99721.41;10410219;28;20057;-61
2023/07/03 03:42:41;;;;;;;13.27;7.70;;;;;;;18.89;50.20;99731.97;10409244;28;20466;-62
2023/07/03 03:47:43;;;;;;;14.80;7.78;;;;;;;18.81;50.49;99732.03;10408274;28;20048;-64
2023/07/03 03:52:44;;;;;;;12.27;7.78;;;;;;;18.89;50.10;99731.97;10404674;28;20735;-62
2023/07/03 03:57:46;;;;;;;12.20;6.63;;;;;;;18.84;49.93;99726.25;10403237;28;20063;-62
2023/07/03 04:02:48;;;;;;;11.93;6.63;;;;;;;18.86;50.22;99718.88;10398154;28;20048;-63
2023/07/03 04:07:50;;;;;;;15.23;7.15;;;;;;;18.84;50.06;99708.22;10402882;28;20520;-61
2023/07/03 04:12:51;;;;;;;11.50;6.28;;;;;;;18.92;49.34;99720.78;10405857;28;20057;-63
2023/07/03 04:17:52;;;;;;;9.48;5.88;;;;;;;18.87;49.14;99717.81;10399644;28;20548;-62
2023/07/03 04:22:54;;;;;;;14.30;5.70;;;;;;;18.59;49.21;99682.66;10403118;28;20124;-63
2023/07/03 04:27:55;;;;;;;12.75;4.90;;;;;;;18.76;49.54;99715.59;10404320;28;20147;-63
2023/07/03 04:32:57;;;;;;;11.90;5.93;;;;;;;18.72;49.47;99721.38;10405600;28;20524;-62
2023/07/03 04:38:01;;;;;;;14.70;5.95;;;;;;;18.81;49.12;99734.72;10406945;28;20516;-61
2023/07/03 04:43:02;;;;;;;9.70;4.85;;;;;;;18.63;49.67;99735.13;10401540;28;20053;-61
2023/07/03 04:48:04;;;;;;;11.95;4.72;;;;;;;18.75;49.14;99752.53;10403822;28;20053;-62
2023/07/03 04:53:05;;;;;;;12.57;5.07;;;;;;;18.73;49.60;99750.00;10412606;28;20110;-62
2023/07/03 04:58:07;;;;;;;8.68;4.35;;;;;;;18.78;49.35;99764.75;10406490;28;20073;-61
2023/07/03 05:03:09;;;;;;;11.02;5.68;;;;;;;18.78;49.23;99756.69;10395991;28;20080;-61
2023/07/03 05:08:11;;;;;;;10.88;4.97;;;;;;;18.83;49.42;99765.03;10397065;28;20053;-64
2023/07/03 05:13:12;;;;;;;14.10;5.43;;;;;;;18.56;49.19;99743.16;10397334;28;20139;-65
2023/07/03 05:18:13;;;;;;;10.52;5.25;;;;;;;18.65;49.40;99766.28;10380662;28;20396;-63
2023/07/03 05:23:15;;;;;;;13.10;5.55;;;;;;;18.54;49.99;99756.81;10384137;28;20713;-62
2023/07/03 05:28:16;;;;;;;13.43;6.00;;;;;;;18.50;49.55;99760.06;10383517;28;20067;-65
2023/07/03 05:33:18;;;;;;;11.13;4.70;;;;;;;18.48;49.73;99762.09;10382598;28;20369;-63
2023/07/03 05:38:20;;;;;;;9.48;4.85;;;;;;;18.50;49.57;99770.84;10388012;28;20060;-66
2023/07/03 05:43:21;;;;;;;9.07;5.18;;;;;;;18.52;49.08;99768.81;10392248;28;20150;-64
2023/07/03 05:48:23;;;;;;;12.70;5.25;;;;;;;18.54;49.19;99789.16;10379531;28;20143;-62
2023/07/03 05:53:25;;;;;;;12.25;5.07;;;;;;;18.62;49.07;99798.19;10385063;28;20052;-63
2023/07/03 05:58:27;;;;;;;14.77;5.40;;;;;;;18.53;49.20;99813.59;10384230;28;20960;-63
2023/07/03 06:03:28;;;;;;;12.63;5.38;;;;;;;18.34;49.44;99794.25;10384166;28;20049;-63
2023/07/03 06:08:31;;;;;;;11.23;4.97;;;;;;;18.32;49.29;99780.16;10383789;28;20330;-63
2023/07/03 06:13:32;;;;;;;8.57;4.75;;;;;;;18.52;49.13;99811.91;10381458;28;20052;-63
2023/07/03 06:18:33;;;;;;;10.73;4.70;;;;;;;18.67;49.03;99815.44;10379256;28;20528;-63
2023/07/03 06:23:35;;;;;;;12.48;4.88;;;;;;;18.78;48.58;99810.59;10383045;28;20162;-64
2023/07/03 06:28:36;;;;;;;8.60;3.90;;;;;;;18.67;47.82;99809.22;10382509;28;20072;-63
2023/07/03 06:33:38;;;;;;;8.45;4.55;;;;;;;18.66;48.61;99824.56;10386300;28;20061;-64
2023/07/03 06:38:39;;;;;;;9.40;4.82;;;;;;;18.66;48.22;99818.31;10380682;28;20136;-64
2023/07/03 06:43:41;;;;;;;10.43;5.10;;;;;;;18.67;49.03;99830.78;10385048;28;20140;-62
2023/07/03 06:48:43;;;;;;;8.23;4.13;;;;;;;18.70;48.44;99844.72;10384958;28;20113;-64
2023/07/03 06:53:44;;;;;;;9.88;4.45;;;;;;;18.72;48.57;99850.78;10384126;28;20143;-63
2023/07/03 06:58:49;;;;;;;11.07;4.50;;;;;;;18.78;48.48;99842.94;10383176;28;20045;-64
2023/07/03 07:03:50;;;;;;;8.65;3.20;;;;;;;18.87;48.30;99853.50;10386382;28;20295;-63
2023/07/03 07:08:52;;;;;;;7.07;3.25;;;;;;;18.85;47.65;99854.66;10387285;28;20152;-67
2023/07/03 07:13:56;;;;;;;9.25;3.75;;;;;;;18.96;47.60;99856.94;10386350;28;20720;-63
2023/07/03 07:19:02;;;;;;;8.68;3.35;;;;;;;18.95;46.96;99857.94;10387300;28;20075;-63
2023/07/03 07:24:20;;;;;;;7.97;3.53;;;;;;;18.83;47.28;99862.13;10388507;28;20272;-62
2023/07/03 07:29:24;;;;;;;12.80;4.35;;;;;;;18.97;47.29;99852.38;10389356;28;20049;-63
2023/07/03 07:34:25;;;;;;;;;;;;;;;19.17;46.54;99853.44;10387551;28;20052;-61
2023/07/03 07:39:27;;;;;;;9.38;3.17;;;;;;;18.89;46.36;99834.44;10386169;28;20296;-63
2023/07/03 07:44:28;;;;;;;10.85;3.50;;;;;;;19.21;46.37;99837.72;10387659;28;20983;-62
2023/07/03 07:49:29;;;;;;;13.25;3.38;;;;;;;19.42;45.61;99818.84;10386213;28;20094;-62
2023/07/03 07:54:31;;;;;;;9.18;3.10;;;;;;;19.70;45.51;99836.97;10386948;28;20049;-63
2023/07/03 07:59:35;;;;;;;10.05;3.78;;;;;;;19.65;44.58;99827.78;10387033;28;20064;-61
2023/07/03 08:04:46;;;;;;;7.82;2.97;;;;;;;19.51;44.73;99816.03;10387392;28;20312;-61
2023/07/03 08:09:48;;;;;;;7.40;2.83;;;;;;;19.41;44.13;99830.69;10384178;28;20183;-62
2023/07/03 08:14:49;;;;;;;10.13;3.55;;;;;;;19.55;44.29;99825.41;10389434;28;20502;-61
2023/07/03 08:19:51;;;;;;;9.25;3.33;;;;;;;19.73;44.17;99828.50;10379039;28;20099;-61
2023/07/03 08:24:53;;;;;;;12.75;3.67;;;;;;;19.92;43.95;99834.28;10388976;28;20055;-61
2023/07/03 08:29:56;;;;;;;7.63;4.22;;;;;;;19.96;44.19;99838.28;10386149;28;20471;-61
2023/07/03 08:34:57;;;;;;;8.65;3.28;;;;;;;20.11;43.92;99824.69;10386435;28;20057;-61
2023/07/03 08:40:03;;;;;;;7.38;3.15;;;;;;;20.30;43.93;99833.97;10388228;28;20049;-63
2023/07/03 08:45:06;;;;;;;8.00;3.67;;;;;;;20.45;43.00;99840.09;10386955;28;20927;-62
2023/07/03 08:50:10;;;;;;;;;;;;;;;20.52;41.74;99839.28;10382154;28;20658;-63
2023/07/03 08:55:23;;;;;;;8.20;2.97;;;;;;;20.37;41.81;99818.63;10388215;28;19943;-63
2023/07/03 09:00:29;;;;;;;8.18;2.83;;;;;;;20.45;42.04;99845.50;10382825;28;20064;-62
2023/07/03 09:05:45;;;;;;;9.88;3.50;;;;;;;20.61;42.00;99840.78;10386808;28;20466;-64
2023/07/03 09:10:49;;;;;;;6.05;2.60;;;;;;;20.54;41.56;99842.66;10383418;28;20398;-63
2023/07/03 09:15:54;;;;;;;;;;;;;;;20.72;41.38;99856.50;10384403;28;20053;-64
2023/07/03 09:20:57;;;;;;;9.40;3.08;;;;;;;20.98;41.57;99844.13;10380149;28;19935;-64
2023/07/03 09:26:02;;;;;;;;;;;;;;;21.10;40.94;99868.75;10387609;28;20049;-64
2023/07/03 09:31:05;;;;;;;6.72;2.08;;;;;;;21.13;40.88;99857.53;10384473;28;19925;-63
2023/07/03 09:36:29;;;;;;;5.78;2.25;;;;;;;21.08;40.30;99852.72;10383493;28;20647;-64
2023/07/03 09:41:34;;;;;;;4.37;2.10;;;;;;;21.13;40.40;99868.34;10383724;28;20139;-63
2023/07/03 09:46:35;;;;;;;7.45;3.20;;;;;;;21.21;40.38;99848.38;10381398;28;20092;-64
2023/07/03 09:51:37;;;;;;;5.50;2.35;;;;;;;21.45;40.07;99861.38;10384960;28;20462;-64
2023/07/03 09:56:39;;;;;;;4.82;2.42;;;;;;;21.86;40.63;99855.00;10383310;28;20044;-64
2023/07/03 10:01:40;;;;;;;7.28;2.15;;;;;;;22.08;39.98;99857.50;10387046;28;20053;-64
2023/07/03 10:07:13;;;;;;;6.35;2.33;;;;;;;22.05;39.48;99861.50;10379685;28;20741;-64
2023/07/03 10:12:25;;;;;;;6.40;2.35;;;;;;;22.28;39.42;99860.22;10378902;28;20105;-63
2023/07/03 10:17:33;;;;;;;5.50;2.60;;;;;;;22.37;39.59;99848.16;10387097;28;20045;-64
2023/07/03 10:22:37;;;;;;;6.75;2.63;;;;;;;22.38;38.32;99848.97;10377342;28;20056;-63
2023/07/03 10:27:39;;;;;;;7.38;2.53;;;;;;;22.41;39.09;99853.97;10385617;28;20060;-64
2023/07/03 10:32:44;;;;;;;7.00;2.85;;;;;;;22.75;38.42;99850.13;10383084;28;20057;-65
2023/07/03 10:38:23;;;;;;;5.25;2.72;;;;;;;23.03;36.60;99861.72;10382300;28;20427;-62
2023/07/03 10:43:28;;;;;;;5.05;2.47;;;;;;;22.54;37.29;99864.81;10376849;28;20116;-64
2023/07/03 10:48:33;;;;;;;6.00;2.60;;;;;;;22.33;38.80;99856.91;10389102;28;20060;-63
2023/07/03 10:53:53;;;;;;;6.40;2.28;;;;;;;22.12;38.19;99860.66;10389428;28;20048;-65
2023/07/03 10:59:06;;;;;;;5.97;2.47;;;;;;;21.89;38.62;99832.91;10391216;28;20111;-64
2023/07/03 11:04:17;;;;;;;4.65;2.60;;;;;;;21.91;38.52;99846.25;10387581;28;20136;-63
2023/07/03 11:09:33;;;;;;;6.50;2.83;;;;;;;22.27;38.77;99836.88;10387765;28;20072;-63
2023/07/03 11:14:45;;;;;;;5.50;2.35;;;;;;;22.15;38.49;99823.13;10392113;28;20055;-66
2023/07/03 11:19:59;;;;;;;6.65;2.53;;;;;;;22.64;38.64;99831.81;10387060;28;20045;-64
2023/07/03 11:25:12;;;;;;;3.53;2.67;;;;;;;22.83;38.74;99800.22;10389505;28;20927;-64
2023/07/03 11:30:14;;;;;;;;;;;;;;;22.98;38.01;99818.13;10393809;28;20053;-64
2023/07/03 11:35:16;;;;;;;5.40;2.92;;;;;;;23.45;38.17;99816.03;10388292;28;19929;-63
2023/07/03 11:40:23;;;;;;;4.90;2.47;;;;;;;23.74;37.24;99805.59;10392141;28;20071;-64
2023/07/03 11:45:29;;;;;;;7.70;2.75;;;;;;;23.84;36.81;99811.38;10384610;28;20383;-66
2023/07/03 11:50:33;;;;;;;4.93;2.75;;;;;;;23.87;37.17;99808.25;10387414;28;20652;-65
2023/07/03 11:55:39;;;;;;;7.22;3.08;;;;;;;24.07;37.06;99813.50;10385776;28;20053;-64
2023/07/03 12:00:40;;;;;;;4.85;2.42;;;;;;;23.92;37.49;99794.81;10383598;28;20489;-63
2023/07/03 12:05:45;;;;;;;3.93;2.00;;;;;;;23.95;35.93;99799.78;10385481;28;20057;-64
2023/07/03 12:10:49;;;;;;;7.60;2.08;;;;;;;24.07;36.12;99807.22;10389436;28;20056;-64
2023/07/03 12:15:59;;;;;;;4.82;2.03;;;;;;;24.03;35.80;99795.13;10385590;28;20068;-63
2023/07/03 12:21:03;;;;;;;3.85;2.05;;;;;;;24.25;35.60;99796.38;10386112;28;20164;-64
2023/07/03 12:26:11;;;;;;;5.47;2.17;;;;;;;24.27;34.88;99801.59;10383238;28;20060;-64
2023/07/03 12:31:18;;;;;;;7.40;2.78;;;;;;;23.77;35.32;99797.00;10384004;28;20098;-64
2023/07/03 12:36:30;;;;;;;5.80;2.15;;;;;;;23.65;35.44;99800.41;10387803;28;20164;-64
2023/07/03 12:41:35;;;;;;;6.30;2.92;;;;;;;23.78;36.33;99798.66;10386085;28;20049;-64
2023/07/03 12:46:39;;;;;;;4.90;2.25;;;;;;;23.70;35.78;99801.66;10379487;28;20072;-63
2023/07/03 12:51:52;;;;;;;5.05;1.90;;;;;;;24.03;35.68;99784.25;10384075;28;20600;-63
2023/07/03 12:56:54;;;;;;;6.30;2.53;;;;;;;24.08;35.80;99773.53;10380901;28;20059;-63
2023/07/03 13:01:55;;;;;;;3.40;1.88;;;;;;;24.22;34.50;99785.97;10383923;28;20607;-62
2023/07/03 13:06:57;;;;;;;3.67;2.15;;;;;;;24.43;35.62;99762.09;10381860;28;20384;-63
2023/07/03 13:11:59;;;;;;;4.43;2.10;;;;;;;24.57;35.07;99757.34;10380156;28;20056;-63
2023/07/03 13:17:05;;;;;;;5.75;2.35;;;;;;;24.63;33.16;99745.56;10385991;28;20809;-63
2023/07/03 13:22:17;;;;;;;3.75;2.05;;;;;;;24.77;33.81;99751.66;10376810;28;20049;-65
2023/07/03 13:27:22;;;;;;;4.97;2.35;;;;;;;24.75;34.04;99746.44;10378031;28;20569;-65
2023/07/03 13:32:25;;;;;;;3.90;2.17;;;;;;;24.60;32.73;99746.84;10382254;28;20415;-63
2023/07/03 13:37:30;;;;;;;4.93;2.58;;;;;;;24.60;33.19;99762.34;10383015;28;21553;-65
2023/07/03 13:42:31;;;;;;;5.88;2.38;;;;;;;24.38;33.09;99748.34;10381497;28;20049;-62
2023/07/03 13:47:32;;;;;;;4.95;3.17;;;;;;;24.31;33.38;99746.53;10388301;28;20053;-63
2023/07/03 13:52:36;;;;;;;4.43;2.30;;;;;;;24.22;33.37;99750.59;10382308;28;20505;-65
2023/07/03 13:57:38;;;;;;;5.78;2.53;;;;;;;24.10;32.78;99736.09;10384630;28;20083;-64
2023/07/03 14:02:39;;;;;;;7.28;2.42;;;;;;;24.02;33.04;99744.53;10383343;28;20625;-65
2023/07/03 14:07:49;;;;;;;5.10;2.38;;;;;;;24.03;33.27;99730.72;10381608;28;20057;-64
2023/07/03 14:12:51;;;;;;;4.93;2.80;;;;;;;24.09;33.26;99740.69;10384243;28;20357;-64
2023/07/03 14:17:52;;;;;;;4.47;2.80;;;;;;;23.98;34.17;99739.53;10380667;28;20803;-65
2023/07/03 14:22:55;;;;;;;3.00;2.50;;;;;;;24.04;34.34;99742.44;10383512;28;20318;-64
2023/07/03 14:27:58;;;;;;;6.70;2.67;;;;;;;23.89;34.16;99746.31;10385773;28;20057;-65
2023/07/03 14:33:00;;;;;;;5.82;2.50;;;;;;;23.68;34.47;99754.88;10387286;28;20113;-64
2023/07/03 14:38:01;;;;;;;3.03;1.83;;;;;;;23.61;34.45;99744.03;10391678;28;20271;-64
2023/07/03 14:43:05;;;;;;;5.57;2.58;;;;;;;23.52;34.42;99746.19;10388818;28;20712;-63
2023/07/03 14:48:08;;;;;;;4.25;2.13;;;;;;;23.51;34.61;99747.25;10388306;28;20057;-64
2023/07/03 14:53:09;;;;;;;;;;;;;;;23.60;34.50;99758.66;10389049;28;20049;-63
2023/07/03 14:58:12;;;;;;;4.85;2.22;;;;;;;23.65;34.52;99756.94;10390537;28;20590;-64
2023/07/03 15:03:14;;;;;;;5.38;2.28;;;;;;;23.54;35.07;99754.97;10395500;28;20638;-63
2023/07/03 15:08:18;;;;;;;4.43;2.50;;;;;;;23.47;35.43;99759.59;10388745;28;20060;-64
2023/07/03 15:13:20;;;;;;;5.90;2.97;;;;;;;23.46;35.34;99757.94;10391142;28;20049;-63
2023/07/03 15:18:21;;;;;;;8.07;2.50;;;;;;;23.21;35.72;99715.31;10385666;28;20203;-64
2023/07/03 15:23:23;;;;;;;6.18;2.85;;;;;;;23.43;35.58;99739.38;10388535;28;20045;-64
2023/07/03 15:28:24;;;;;;;4.05;2.42;;;;;;;23.44;36.10;99731.00;10384075;28;20123;-64
2023/07/03 15:33:27;;;;;;;6.75;2.40;;;;;;;23.64;35.71;99739.00;10389252;28;20912;-64
2023/07/03 15:38:29;;;;;;;4.50;2.75;;;;;;;23.69;36.12;99734.78;10389778;28;20148;-64
2023/07/03 15:43:32;;;;;;;5.53;2.65;;;;;;;23.74;35.75;99733.06;10396590;28;20048;-62
2023/07/03 15:48:35;;;;;;;5.35;2.78;;;;;;;23.65;35.81;99740.66;10383697;28;20198;-63
2023/07/03 15:53:37;;;;;;;6.13;2.47;;;;;;;23.75;35.74;99733.88;10387254;28;20048;-63
2023/07/03 15:58:41;;;;;;;5.15;2.53;;;;;;;23.60;35.45;99716.03;10391291;28;20057;-62
2023/07/03 16:03:44;;;;;;;5.68;2.42;;;;;;;23.64;35.51;99722.72;10386642;28;20148;-63
2023/07/03 16:08:48;;;;;;;8.05;2.65;;;;;;;23.58;34.98;99733.63;10381998;28;20075;-64
2023/07/03 16:13:50;;;;;;;5.97;2.67;;;;;;;23.48;35.60;99731.41;10381178;28;20052;-64
2023/07/03 16:18:54;;;;;;;4.45;2.80;;;;;;;23.46;35.52;99725.34;10383860;28;20068;-64
2023/07/03 16:23:56;;;;;;;4.30;2.60;;;;;;;23.55;35.51;99739.50;10391981;28;20067;-64
2023/07/03 16:28:57;;;;;;;5.10;2.63;;;;;;;23.46;35.71;99715.34;10383795;28;20317;-64
2023/07/03 16:34:00;;;;;;;4.00;2.67;;;;;;;23.61;35.94;99720.41;10377240;28;20049;-63
2023/07/03 16:39:03;;;;;;;5.70;3.03;;;;;;;23.67;35.97;99713.25;10386632;28;20053;-64
2023/07/03 16:44:05;;;;;;;4.90;2.90;;;;;;;23.65;36.38;99716.19;10397276;28;20060;-64
2023/07/03 16:49:07;;;;;;;3.42;2.40;;;;;;;23.64;35.96;99706.41;10386370;28;20065;-63
2023/07/03 16:54:08;;;;;;;4.93;2.38;;;;;;;23.55;35.37;99702.28;10381754;28;20100;-63
2023/07/03 16:59:10;;;;;;;3.60;2.13;;;;;;;23.50;35.59;99693.97;10385654;28;20061;-63
2023/07/03 17:04:11;;;;;;;3.85;2.42;;;;;;;23.54;35.72;99705.22;10383986;28;20049;-65
2023/07/03 17:09:12;;;;;;;5.03;2.22;;;;;;;23.57;36.23;99693.91;10386357;28;20060;-64
2023/07/03 17:14:14;;;;;;;5.30;2.60;;;;;;;23.56;36.26;99693.09;10383599;28;20044;-65
2023/07/03 17:19:15;;;;;;;4.85;3.42;;;;;;;23.63;36.30;99703.91;10387012;28;20126;-63
2023/07/03 17:24:17;;;;;;;3.95;2.05;;;;;;;23.58;36.63;99699.13;10381549;28;20549;-62
2023/07/03 17:29:18;;;;;;;3.28;2.50;;;;;;;23.55;36.69;99685.16;10379841;28;20053;-64
2023/07/03 17:34:19;;;;;;;4.80;2.70;;;;;;;23.48;38.07;99680.63;10383694;28;20270;-62
2023/07/03 17:39:21;;;;;;;5.70;2.60;;;;;;;23.34;38.99;99678.25;10384764;28;20146;-64
2023/07/03 17:44:22;;;;;;;3.53;1.88;;;;;;;23.28;39.50;99669.94;10384199;28;20068;-63
2023/07/03 17:49:24;;;;;;;4.93;2.17;;;;;;;23.23;39.44;99672.47;10385171;28;20111;-61
2023/07/03 17:54:25;;;;;;;2.97;1.95;;;;;;;23.09;39.71;99665.47;10381033;28;20060;-62
2023/07/03 17:59:27;;;;;;;4.45;2.33;;;;;;;23.04;39.18;99673.41;10380055;28;20110;-63
2023/07/03 18:04:28;;;;;;;4.93;2.15;;;;;;;22.81;39.34;99647.69;10385701;28;20052;-64
2023/07/03 18:09:30;;;;;;;3.92;1.45;;;;;;;22.98;39.54;99675.13;10380921;28;20576;-62
2023/07/03 18:14:31;;;;;;;3.60;2.00;;;;;;;22.99;39.90;99686.81;10384961;28;20420;-63
2023/07/03 18:19:33;;;;;;;1.98;1.77;;;;;;;23.01;39.86;99680.09;10385999;28;20290;-63
2023/07/03 18:24:35;;;;;;;2.97;1.60;;;;;;;22.99;40.08;99671.38;10383520;28;20041;-64
2023/07/03 18:29:36;;;;;;;4.13;2.05;;;;;;;23.01;40.04;99673.84;10381876;28;20495;-64
2023/07/03 18:34:38;;;;;;;3.20;1.65;;;;;;;22.91;40.39;99648.03;10382740;28;20053;-63
2023/07/03 18:39:39;;;;;;;2.38;1.70;;;;;;;22.95;40.56;99664.72;10382497;28;20131;-63
2023/07/03 18:44:41;;;;;;;1.58;1.23;;;;;;;22.89;40.79;99660.97;10394867;28;20126;-63
2023/07/03 18:49:43;;;;;;;2.72;2.13;;;;;;;22.87;40.80;99668.50;10385033;28;20064;-62
2023/07/03 18:54:44;;;;;;;3.30;2.20;;;;;;;22.84;40.94;99662.72;10380502;28;20466;-66
2023/07/03 18:59:46;;;;;;;1.95;1.25;;;;;;;22.80;41.52;99670.44;10381454;28;20059;-63
2023/07/03 19:04:48;;;;;;;2.67;1.40;;;;;;;22.66;41.83;99671.56;10381946;28;20049;-64
2023/07/03 19:09:49;;;;;;;3.17;1.75;;;;;;;22.72;42.65;99676.13;10392291;28;20563;-64
2023/07/03 19:14:54;;;;;;;3.40;1.70;;;;;;;22.63;43.29;99682.84;10392641;28;20057;-63
2023/07/03 19:19:55;;;;;;;2.95;1.67;;;;;;;22.53;44.08;99684.16;10392146;28;20689;-64
2023/07/03 19:24:58;;;;;;;1.83;1.20;;;;;;;22.49;44.32;99680.22;10392026;28;20052;-62
2023/07/03 19:29:59;;;;;;;1.87;1.20;;;;;;;22.54;43.90;99688.53;10391378;28;20049;-64
2023/07/03 19:35:01;;;;;;;2.92;1.63;;;;;;;22.49;44.50;99687.50;10398223;28;20091;-63
2023/07/03 19:40:08;;;;;;;3.10;1.70;;;;;;;22.46;44.64;99686.06;10401541;28;21548;-63
2023/07/03 19:45:10;;;;;;;2.03;1.40;;;;;;;22.41;45.03;99700.28;10407774;28;20757;-64
2023/07/03 19:50:11;;;;;;;2.60;1.60;;;;;;;22.40;45.13;99700.50;10411989;28;20179;-63
2023/07/03 19:55:13;;;;;;;4.38;1.77;;;;;;;22.35;45.61;99706.56;10405815;28;20087;-63
2023/07/03 20:00:14;;;;;;;2.08;1.10;;;;;;;22.31;46.29;99710.72;10398476;28;20045;-63
2023/07/03 20:05:16;;;;;;;4.28;1.90;;;;;;;22.05;46.42;99692.63;10386529;28;20388;-63
2023/07/03 20:10:18;;;;;;;2.65;1.25;;;;;;;22.11;46.94;99712.63;10391822;28;20503;-63
2023/07/03 20:15:21;;;;;;;2.00;1.27;;;;;;;22.11;47.02;99721.59;10395450;28;20059;-63
2023/07/03 20:20:22;;;;;;;5.78;1.60;;;;;;;21.98;47.62;99719.75;10397506;28;20069;-63
2023/07/03 20:25:24;;;;;;;1.83;1.25;;;;;;;21.95;48.12;99716.63;10397431;28;20060;-63
2023/07/03 20:30:26;;;;;;;4.68;2.08;;;;;;;21.86;48.38;99719.56;10392066;28;20505;-63
2023/07/03 20:35:27;;;;;;;4.03;1.80;;;;;;;21.86;49.01;99738.53;10395810;28;20439;-64
2023/07/03 20:40:29;;;;;;;1.63;1.33;;;;;;;21.80;49.16;99727.69;10395775;28;20073;-63
2023/07/03 20:45:30;;;;;;;2.90;1.40;;;;;;;21.63;49.58;99727.28;10392392;28;20432;-61
2023/07/03 20:50:32;;;;;;;1.98;1.02;;;;;;;21.46;51.25;99724.94;10393209;28;20131;-62
2023/07/03 20:55:42;;;;;;;3.17;1.60;;;;;;;21.49;51.92;99748.91;10387779;28;20197;-63
2023/07/03 21:00:44;;;;;;;2.85;1.58;;;;;;;21.38;52.68;99736.00;10393031;28;20053;-64
2023/07/03 21:05:45;;;;;;;2.30;1.38;;;;;;;21.41;53.39;99759.94;10390445;28;20059;-64
2023/07/03 21:10:55;;;;;;;1.77;1.20;;;;;;;21.30;54.95;99757.84;10393711;28;20045;-63
2023/07/03 21:16:00;;;;;;;2.08;1.15;;;;;;;21.29;54.88;99750.78;10394619;28;20431;-61
2023/07/03 21:21:30;;;;;;;2.92;1.65;;;;;;;21.24;55.74;99751.38;10393048;28;20450;-62
2023/07/03 21:26:32;;;;;;;2.13;1.35;;;;;;;21.11;56.92;99760.31;10396850;28;20063;-62
2023/07/03 21:31:35;;;;;;;2.17;1.20;;;;;;;21.05;55.97;99757.56;10397358;28;20072;-61
2023/07/03 21:36:37;;;;;;;2.75;1.48;;;;;;;21.09;56.97;99775.06;10404541;28;20360;-60
2023/07/03 21:41:40;;;;;;;2.35;1.42;;;;;;;20.90;57.52;99761.28;10404729;28;20366;-61
2023/07/03 21:46:42;;;;;;;2.90;1.40;;;;;;;20.91;59.16;99772.94;10403319;28;20053;-62
2023/07/03 21:51:44;;;;;;;4.57;1.75;;;;;;;20.79;60.39;99773.53;10398204;28;20466;-60
2023/07/03 21:56:46;;;;;;;3.40;1.73;;;;;;;20.64;59.61;99767.38;10398685;28;20049;-61
2023/07/03 22:01:51;;;;;;;3.67;1.50;;;;;;;20.59;60.32;99769.88;10401861;28;20045;-60
2023/07/03 22:06:52;;;;;;;3.03;1.40;;;;;;;20.64;61.50;99783.59;10400273;28;20049;-62
2023/07/03 22:11:53;;;;;;;2.47;1.38;;;;;;;20.48;62.08;99785.63;10396580;28;20057;-61
2023/07/03 22:16:55;;;;;;;3.10;2.35;;;;;;;20.48;62.66;99784.81;10401444;28;20049;-61
2023/07/03 22:21:58;;;;;;;2.13;1.52;;;;;;;20.38;62.73;99776.22;10400228;28;20075;-61
2023/07/03 22:27:00;;;;;;;2.90;1.73;;;;;;;20.34;63.68;99786.56;10405821;28;20111;-61
2023/07/03 22:32:02;;;;;;;2.00;1.40;;;;;;;20.36;63.51;99786.41;10398242;28;20136;-60
2023/07/03 22:37:04;;;;;;;3.05;1.85;;;;;;;20.35;64.00;99792.81;10408206;28;20181;-62
2023/07/03 22:42:06;;;;;;;2.83;1.55;;;;;;;20.26;64.72;99786.75;10405297;28;20099;-61
2023/07/03 22:47:07;;;;;;;3.35;2.25;;;;;;;20.26;64.77;99787.56;10413979;28;20090;-60
2023/07/03 22:52:10;;;;;;;2.03;1.83;;;;;;;20.21;65.67;99790.03;10408084;28;20113;-61
2023/07/03 22:57:11;;;;;;;2.70;1.80;;;;;;;20.10;65.89;99774.38;10428191;28;20049;-61
2023/07/03 23:02:13;;;;;;;3.03;1.98;;;;;;;20.12;66.17;99797.47;10409205;28;20534;-61
2023/07/03 23:07:14;;;;;;;2.67;2.10;;;;;;;20.03;66.79;99793.25;10401768;28;20081;-61
2023/07/03 23:12:16;;;;;;;3.30;1.73;;;;;;;20.04;67.45;99797.63;10404785;28;20103;-62
2023/07/03 23:17:29;;;;;;;3.83;2.22;;;;;;;19.99;67.56;99808.16;10404832;28;20060;-61
2023/07/03 23:22:31;;;;;;;3.22;1.80;;;;;;;19.96;68.14;99809.38;10403468;28;20432;-63
2023/07/03 23:27:32;;;;;;;3.70;1.90;;;;;;;19.97;67.68;99807.53;10408997;28;20053;-61